createdAt,value
2022-10-19T00:02:45.320Z,101338.34
2022-10-19T00:07:46.759Z,101325.94
2022-10-19T00:17:55.891Z,101341.06
2022-10-19T00:22:57.350Z,101332.69
2022-10-19T00:27:58.770Z,101329.75
2022-10-19T00:33:00.212Z,101334.44
2022-10-19T00:38:01.699Z,101342.41
2022-10-19T00:43:03.147Z,101345.72
2022-10-19T00:48:04.717Z,101345.63
2022-10-19T00:53:06.665Z,101349.25
2022-10-19T00:58:08.979Z,101348.28
2022-10-19T01:03:12.373Z,101336.31
2022-10-19T01:08:13.833Z,101333.16
2022-10-19T01:13:32.279Z,101324.94
2022-10-19T01:18:45.908Z,101331.16
2022-10-19T01:24:09.092Z,101331.44
2022-10-19T01:29:52.322Z,101326.88
2022-10-19T01:35:18.241Z,101323.06
2022-10-19T01:40:37.973Z,101314.13
2022-10-19T01:45:46.076Z,101310.84
2022-10-19T01:50:57.481Z,101302.47
2022-10-19T01:56:02.863Z,101289.72
2022-10-19T02:06:12.654Z,101294.94
2022-10-19T02:11:15.325Z,101300.81
2022-10-19T02:16:26.041Z,101305.88
2022-10-19T02:21:28.342Z,101292.16
2022-10-19T02:26:29.818Z,101294.59
2022-10-19T02:31:31.473Z,101288.72
2022-10-19T02:36:33.369Z,101282.88
2022-10-19T02:41:44.101Z,101276.16
2022-10-19T02:46:52.117Z,101261.88
2022-10-19T02:52:06.283Z,101260.16
2022-10-19T02:57:20.293Z,101250.56
2022-10-19T03:02:21.724Z,101239.44
2022-10-19T03:07:23.283Z,101236.97
2022-10-19T03:12:24.782Z,101239.59
2022-10-19T03:17:26.226Z,101231.19
2022-10-19T03:22:27.667Z,101233.88
2022-10-19T03:27:29.126Z,101222.03
2022-10-19T03:32:30.727Z,101222.16
2022-10-19T03:37:32.425Z,101225.56
2022-10-19T03:42:34.170Z,101215.28
2022-10-19T03:47:35.825Z,101211.75
2022-10-19T03:52:37.527Z,101214.22
2022-10-19T03:57:39.247Z,101211.75
2022-10-19T04:02:40.688Z,101221.06
2022-10-19T04:07:42.103Z,101227.94
2022-10-19T04:12:43.495Z,101225.44
2022-10-19T04:17:48.546Z,101234.00
2022-10-19T04:22:52.707Z,101228.97
2022-10-19T04:27:54.126Z,101219.66
2022-10-19T04:32:55.547Z,101216.28
2022-10-19T04:37:58.872Z,101210.41
2022-10-19T04:43:00.282Z,101207.94
2022-10-19T04:48:01.998Z,101220.78
2022-10-19T04:53:03.502Z,101225.81
2022-10-19T04:58:04.943Z,101226.66
2022-10-19T05:03:06.379Z,101221.53
2022-10-19T05:08:08.571Z,101229.31
2022-10-19T05:13:10.010Z,101226.75
2022-10-19T05:18:11.403Z,101217.97
2022-10-19T05:23:12.831Z,101221.16
2022-10-19T05:28:14.209Z,101211.47
2022-10-19T05:33:15.689Z,101218.31
2022-10-19T05:38:17.202Z,101220.84
2022-10-19T05:43:19.429Z,101212.31
2022-10-19T05:48:20.966Z,101209.69
2022-10-19T05:53:23.186Z,101214.69
2022-10-19T05:58:25.613Z,101214.53
2022-10-19T06:03:28.153Z,101222.88
2022-10-19T06:08:30.053Z,101225.19
2022-10-19T06:13:31.759Z,101226.53
2022-10-19T06:18:34.207Z,101231.38
2022-10-19T06:23:36.600Z,101232.75
2022-10-19T06:28:40.622Z,101239.28
2022-10-19T06:33:45.975Z,101233.91
2022-10-19T06:38:50.654Z,101244.69
2022-10-19T06:43:53.204Z,101237.88
2022-10-19T06:49:00.128Z,101233.44
2022-10-19T06:54:01.894Z,101239.75
2022-10-19T06:59:03.700Z,101236.72
2022-10-19T07:04:05.362Z,101249.63
2022-10-19T07:09:06.887Z,101233.53
2022-10-19T07:14:09.112Z,101228.69
2022-10-19T07:19:11.678Z,101232.00
2022-10-19T07:24:13.167Z,101226.44
2022-10-19T07:29:14.609Z,101215.13
2022-10-19T07:34:16.381Z,101217.59
2022-10-19T07:39:18.119Z,101220.72
2022-10-19T07:44:19.702Z,101218.81
2022-10-19T07:49:21.794Z,101223.34
2022-10-19T07:54:24.632Z,101222.53
2022-10-19T07:59:26.059Z,101217.28
2022-10-19T08:04:59.011Z,101216.50
2022-10-19T08:09:53.127Z,101212.78
2022-10-19T08:14:54.957Z,101221.13
2022-10-19T08:19:56.444Z,101218.47
2022-10-19T08:24:57.951Z,101211.94
2022-10-19T08:29:59.328Z,101202.44
2022-10-19T08:35:00.791Z,101201.44
2022-10-19T08:40:02.198Z,101191.03
2022-10-19T08:45:06.791Z,101191.72
2022-10-19T08:50:20.042Z,101190.22
2022-10-19T08:55:34.667Z,101183.13
2022-10-19T09:01:21.291Z,101180.81
2022-10-19T09:06:34.147Z,101181.19
2022-10-19T09:11:42.750Z,101179.78
2022-10-19T09:16:44.287Z,101178.97
2022-10-19T09:22:11.277Z,101167.28
2022-10-19T09:27:24.367Z,101163.69
2022-10-19T09:32:31.355Z,101175.38
2022-10-19T09:37:38.823Z,101173.69
2022-10-19T09:42:40.258Z,101167.78
2022-10-19T09:47:45.847Z,101168.75
2022-10-19T09:52:53.401Z,101146.00
2022-10-19T09:58:14.656Z,101152.91
2022-10-19T10:03:28.271Z,101160.81
2022-10-19T10:08:33.753Z,101154.25
2022-10-19T10:13:41.075Z,101147.38
2022-10-19T10:18:54.741Z,101142.97
2022-10-19T10:24:20.907Z,101132.69
2022-10-19T10:29:26.150Z,101141.63
2022-10-19T10:34:50.572Z,101139.13
2022-10-19T10:39:59.088Z,101140.53
2022-10-19T10:45:11.038Z,101135.22
2022-10-19T10:50:25.542Z,101137.47
2022-10-19T10:55:28.809Z,101111.28
2022-10-19T11:00:31.443Z,101110.69
2022-10-19T11:05:39.917Z,101106.72
2022-10-19T11:10:54.810Z,101108.78
2022-10-19T11:16:07.289Z,101101.28
2022-10-19T11:21:21.030Z,101103.78
2022-10-19T11:26:53.011Z,101086.63
2022-10-19T11:31:56.786Z,101083.84
2022-10-19T11:37:08.417Z,101080.19
2022-10-19T11:42:26.071Z,101070.13
2022-10-19T11:47:53.143Z,101075.00
2022-10-19T11:53:04.650Z,101073.44
2022-10-19T11:58:25.533Z,101065.25
2022-10-19T12:04:12.644Z,101067.22
2022-10-19T12:09:28.451Z,101059.75
2022-10-19T12:14:42.233Z,101048.34
2022-10-19T12:19:50.906Z,101049.22
2022-10-19T12:24:55.684Z,101040.03
2022-10-19T12:30:04.191Z,101026.88
2022-10-19T12:35:21.197Z,101041.91
2022-10-19T12:40:44.398Z,101018.66
2022-10-19T12:45:52.401Z,100999.06
2022-10-19T12:50:57.175Z,101005.53
2022-10-19T12:56:14.377Z,100989.16
2022-10-19T13:01:35.260Z,100978.91
2022-10-19T13:06:41.979Z,100981.84
2022-10-19T13:12:19.436Z,100980.47
2022-10-19T13:17:37.298Z,100983.84
2022-10-19T13:22:38.821Z,100977.09
2022-10-19T13:27:40.524Z,100972.97
2022-10-19T13:32:45.983Z,100978.97
2022-10-19T13:38:10.388Z,100953.66
2022-10-19T13:43:39.841Z,100949.53
2022-10-19T13:49:06.989Z,100940.13
2022-10-19T13:54:14.490Z,100934.78
2022-10-19T14:00:04.511Z,100931.25
2022-10-19T14:05:24.950Z,100909.53
2022-10-19T14:10:32.749Z,100929.06
2022-10-19T14:15:35.645Z,100914.44
2022-10-19T14:20:39.038Z,100927.75
2022-10-19T14:25:40.621Z,100930.72
2022-10-19T14:30:42.117Z,100922.56
2022-10-19T14:35:49.835Z,100916.13
2022-10-19T14:40:51.791Z,100917.78
2022-10-19T14:46:04.016Z,100913.97
2022-10-19T14:51:40.770Z,100903.75
2022-10-19T14:56:51.043Z,100902.59
2022-10-19T15:01:56.658Z,100892.44
2022-10-19T15:07:02.102Z,100895.91
2022-10-19T15:12:12.460Z,100896.00
2022-10-19T15:17:30.084Z,100876.63
2022-10-19T15:22:31.477Z,100863.06
2022-10-19T15:27:38.547Z,100874.25
2022-10-19T15:32:40.048Z,100877.72
2022-10-19T15:37:47.633Z,100865.28
2022-10-19T15:42:49.069Z,100854.22
2022-10-19T15:48:10.417Z,100847.09
2022-10-19T15:53:11.847Z,100848.59
2022-10-19T15:58:14.252Z,100841.28
2022-10-19T16:03:16.423Z,100836.53
2022-10-19T16:08:17.843Z,100836.94
2022-10-19T16:13:19.481Z,100828.88
2022-10-19T16:18:21.057Z,100818.41
2022-10-19T16:23:23.086Z,100821.63
2022-10-19T16:28:24.510Z,100834.28
2022-10-19T16:33:26.214Z,100833.16
2022-10-19T16:38:28.962Z,100827.16
2022-10-19T16:43:30.763Z,100830.41
2022-10-19T16:48:32.598Z,100841.09
2022-10-19T16:53:34.838Z,100839.78
2022-10-19T16:58:37.278Z,100831.59
2022-10-19T17:03:38.781Z,100836.50
2022-10-19T17:14:05.404Z,100827.31
2022-10-19T17:19:08.142Z,100830.31
2022-10-19T17:24:21.002Z,100831.56
2022-10-19T17:29:23.568Z,100837.16
2022-10-19T17:34:25.206Z,100829.03
2022-10-19T17:39:29.050Z,100821.75
2022-10-19T17:44:31.761Z,100821.34
2022-10-19T17:49:33.362Z,100819.94
2022-10-19T17:54:43.532Z,100818.69
2022-10-19T17:59:55.876Z,100808.97
2022-10-19T18:04:57.352Z,100817.97
2022-10-19T18:09:58.789Z,100818.41
2022-10-19T18:15:00.502Z,100818.69
2022-10-19T18:20:01.908Z,100831.69
2022-10-19T18:25:03.721Z,100824.16
2022-10-19T18:30:05.609Z,100822.59
2022-10-19T18:35:08.873Z,100835.53
2022-10-19T18:40:11.898Z,100827.16
2022-10-19T18:45:13.349Z,100805.16
2022-10-19T18:50:17.416Z,100810.69
2022-10-19T18:55:18.884Z,100811.84
2022-10-19T19:00:20.394Z,100795.81
2022-10-19T19:05:22.575Z,100792.63
2022-10-19T19:10:24.568Z,100791.06
2022-10-19T19:15:26.026Z,100785.94
2022-10-19T19:20:27.474Z,100778.34
2022-10-19T19:25:28.933Z,100767.75
2022-10-19T19:30:30.512Z,100760.63
2022-10-19T19:35:33.218Z,100752.81
2022-10-19T19:40:34.698Z,100747.78
2022-10-19T19:45:37.141Z,100743.38
2022-10-19T19:50:38.588Z,100732.22
2022-10-19T19:55:40.065Z,100742.22
2022-10-19T20:00:45.140Z,100748.72
2022-10-19T20:05:46.562Z,100750.00
2022-10-19T20:10:48.031Z,100761.16
2022-10-19T20:15:50.299Z,100759.63
2022-10-19T20:20:51.806Z,100769.06
2022-10-19T20:25:53.716Z,100754.63
2022-10-19T20:31:08.259Z,100765.00
2022-10-19T20:36:14.004Z,100760.94
2022-10-19T20:41:19.657Z,100760.16
2022-10-19T20:46:27.018Z,100756.06
2022-10-19T20:51:32.249Z,100762.34
2022-10-19T20:56:36.969Z,100753.50
2022-10-19T21:01:40.329Z,100757.34
2022-10-19T21:06:44.468Z,100751.75
2022-10-19T21:11:47.448Z,100764.00
2022-10-19T21:16:49.030Z,100755.81
2022-10-19T21:21:55.317Z,100756.16
2022-10-19T21:26:56.794Z,100752.44
2022-10-19T21:31:58.549Z,100747.09
2022-10-19T21:37:00.010Z,100734.59
2022-10-19T21:42:02.595Z,100732.28
2022-10-19T21:47:04.105Z,100724.72
2022-10-19T21:52:05.595Z,100722.31
2022-10-19T21:57:07.081Z,100716.56
2022-10-19T22:02:08.596Z,100715.88
2022-10-19T22:07:10.037Z,100718.38
2022-10-19T22:12:11.615Z,100700.56
2022-10-19T22:17:13.134Z,100700.88
2022-10-19T22:22:14.587Z,100686.66
2022-10-19T22:27:16.029Z,100681.75
2022-10-19T22:32:17.890Z,100675.09
2022-10-19T22:37:19.351Z,100665.75
2022-10-19T22:42:20.788Z,100652.97
2022-10-19T22:47:22.552Z,100639.41
2022-10-19T22:52:24.044Z,100635.28
2022-10-19T22:57:25.468Z,100622.69
2022-10-19T23:02:26.909Z,100620.19
2022-10-19T23:07:28.344Z,100616.00
2022-10-19T23:12:29.841Z,100597.94
2022-10-19T23:17:31.311Z,100604.06
2022-10-19T23:22:32.734Z,100606.66
2022-10-19T23:27:34.645Z,100605.72
2022-10-19T23:32:36.527Z,100596.28
2022-10-19T23:37:38.339Z,100587.56
2022-10-19T23:42:40.018Z,100585.78
2022-10-19T23:47:41.420Z,100584.06
2022-10-19T23:52:43.234Z,100596.81
2022-10-19T23:57:44.671Z,100593.53
